KPVC

Provincetown Municipal Airport

Provincetown, Massachusetts, USA
METAR KPVC 210510Z AUTO 07006KT 10SM BKN019 OVC070 18/17 A3015 RMK AO2
Observed Flight Rules
Aug-21 @ 05:10 UTC (9 hours ago) Marginal Visual Flight Rules
Wind Visibility Clouds
70° at 6 knots 10 miles
  • Broken at 1,900' AGL
  • Overcast at 7,000' AGL
Temperatures Readings
Current 18°C / 64°F
Dewpoint 17°C / 63°F
Humidity 94%
Altimeter 30.15" Hg
Pressure 1021 hPa
Elevation 2
METAR KPVC 210510Z AUTO 07006KT 10SM BKN019 OVC070 18/17 A3015 RMK AO2
Observed Flight Rules
Aug-21 @ 05:10 UTC
(9 hours ago)
MVFR
Wind Visibility
70° at 6 knots 10 miles
Clouds
  • Broken at 1,900' AGL
  • Overcast at 7,000' AGL
Temperature Dewpoint
18°C / 64°F 17°C / 63°F
Humidity Altimeter Pressure
94% 30.15" Hg 1021 hPa